createdAt,value
2018-09-19T00:01:53.022Z,48.70
2018-09-19T00:04:22.977Z,48.70
2018-09-19T00:06:52.905Z,48.60
2018-09-19T00:09:22.822Z,48.60
2018-09-19T00:11:52.786Z,48.70
2018-09-19T00:14:22.700Z,48.70
2018-09-19T00:16:52.633Z,48.60
2018-09-19T00:19:22.534Z,48.70
2018-09-19T00:21:52.493Z,48.80
2018-09-19T00:24:22.362Z,48.80
2018-09-19T00:26:52.260Z,48.70
2018-09-19T00:29:22.165Z,48.70
2018-09-19T00:31:52.069Z,48.70
2018-09-19T00:34:21.987Z,48.70
2018-09-19T00:36:51.943Z,48.70
2018-09-19T00:39:21.850Z,48.60
2018-09-19T00:41:51.779Z,48.70
2018-09-19T00:44:21.679Z,48.60
2018-09-19T00:46:51.599Z,48.70
2018-09-19T00:49:21.527Z,48.60
2018-09-19T00:51:51.444Z,48.60
2018-09-19T00:54:21.333Z,48.70
2018-09-19T00:56:51.257Z,48.60
2018-09-19T00:59:21.150Z,48.50
2018-09-19T01:01:51.081Z,48.60
2018-09-19T01:04:21.016Z,48.60
2018-09-19T01:06:50.948Z,48.60
2018-09-19T01:09:20.852Z,48.60
2018-09-19T01:11:50.759Z,48.80
2018-09-19T01:14:20.667Z,48.80
2018-09-19T01:16:50.564Z,48.90
2018-09-19T01:19:20.460Z,48.90
2018-09-19T01:21:50.630Z,48.70
2018-09-19T01:24:20.524Z,48.70
2018-09-19T01:26:50.428Z,48.70
2018-09-19T01:29:20.343Z,48.80
2018-09-19T01:31:50.284Z,48.80
2018-09-19T01:34:20.179Z,49.00
2018-09-19T01:36:50.076Z,49.10
2018-09-19T01:39:20.008Z,49.00
2018-09-19T01:41:49.912Z,49.20
2018-09-19T01:44:19.828Z,49.90
2018-09-19T01:46:49.723Z,49.20
2018-09-19T01:49:19.646Z,48.80
2018-09-19T01:51:53.347Z,48.70
2018-09-19T01:54:24.403Z,48.80
2018-09-19T01:56:54.814Z,49.50
2018-09-19T01:59:24.821Z,48.90
2018-09-19T02:01:54.725Z,49.00
2018-09-19T02:04:24.641Z,49.10
2018-09-19T02:06:54.532Z,49.10
2018-09-19T02:09:24.425Z,49.20
2018-09-19T02:11:54.329Z,49.40
2018-09-19T02:14:24.268Z,49.40
2018-09-19T02:16:54.192Z,49.40
2018-09-19T02:19:24.105Z,49.40
2018-09-19T02:21:54.016Z,49.30
2018-09-19T02:24:23.932Z,49.40
2018-09-19T02:26:53.811Z,49.40
2018-09-19T02:29:23.739Z,49.50
2018-09-19T02:31:53.631Z,49.40
2018-09-19T02:34:23.546Z,49.40
2018-09-19T02:36:53.439Z,49.50
2018-09-19T02:39:23.353Z,49.50
2018-09-19T02:41:53.288Z,49.50
2018-09-19T02:44:23.214Z,49.40
2018-09-19T02:46:53.110Z,49.60
2018-09-19T02:49:23.022Z,49.70
2018-09-19T02:51:57.124Z,49.80
2018-09-19T02:54:29.375Z,49.70
2018-09-19T02:56:59.398Z,49.70
2018-09-19T02:59:29.343Z,49.60
2018-09-19T03:01:59.214Z,49.60
2018-09-19T03:04:29.106Z,49.50
2018-09-19T03:06:59.029Z,49.50
2018-09-19T03:09:28.953Z,49.50
2018-09-19T03:11:58.860Z,49.50
2018-09-19T03:14:28.767Z,49.50
2018-09-19T03:16:58.711Z,49.50
2018-09-19T03:19:28.687Z,49.60
2018-09-19T03:21:58.584Z,49.60
2018-09-19T03:24:28.477Z,49.60
2018-09-19T03:26:58.394Z,49.40
2018-09-19T03:29:28.439Z,49.40
2018-09-19T03:31:58.381Z,49.40
2018-09-19T03:34:28.277Z,49.50
2018-09-19T03:36:58.243Z,49.50
2018-09-19T03:39:28.147Z,49.60
2018-09-19T03:41:58.045Z,49.50
2018-09-19T03:44:27.949Z,49.60
2018-09-19T03:46:59.094Z,49.60
2018-09-19T03:49:29.417Z,50.30
2018-09-19T03:51:59.320Z,49.60
2018-09-19T03:54:29.225Z,49.60
2018-09-19T03:56:59.155Z,49.50
2018-09-19T03:59:29.071Z,49.50
2018-09-19T04:01:59.017Z,49.40
2018-09-19T04:04:28.935Z,49.40
2018-09-19T04:06:58.826Z,49.50
2018-09-19T04:09:28.744Z,49.50
2018-09-19T04:11:58.651Z,49.50
2018-09-19T04:14:28.649Z,49.40
2018-09-19T04:16:58.558Z,49.30
2018-09-19T04:19:28.479Z,49.30
2018-09-19T04:21:58.413Z,49.30
2018-09-19T04:24:28.348Z,49.30
2018-09-19T04:26:58.663Z,49.40
2018-09-19T04:29:28.585Z,49.40
2018-09-19T04:31:58.512Z,49.40
2018-09-19T04:34:28.753Z,49.40
2018-09-19T04:36:58.803Z,49.50
2018-09-19T04:39:28.740Z,49.40
2018-09-19T04:41:58.657Z,49.50
2018-09-19T04:44:28.584Z,49.60
2018-09-19T04:46:58.573Z,49.60
2018-09-19T04:49:28.512Z,49.60
2018-09-19T04:51:58.430Z,49.60
2018-09-19T04:54:28.359Z,49.60
2018-09-19T04:56:58.282Z,49.50
2018-09-19T04:59:28.211Z,49.60
2018-09-19T05:01:58.143Z,49.50
2018-09-19T05:04:28.068Z,49.50
2018-09-19T05:06:58.034Z,49.40
2018-09-19T05:09:28.026Z,49.60
2018-09-19T05:11:57.945Z,49.60
2018-09-19T05:14:27.868Z,49.60
2018-09-19T05:16:58.174Z,49.60
2018-09-19T05:19:28.295Z,49.60
2018-09-19T05:21:58.301Z,49.60
2018-09-19T05:24:28.349Z,50.30
2018-09-19T05:26:58.275Z,49.60
2018-09-19T05:29:28.262Z,49.70
2018-09-19T05:31:58.197Z,49.60
2018-09-19T05:34:28.134Z,49.40
2018-09-19T05:36:58.062Z,50.20
2018-09-19T05:39:28.004Z,49.60
2018-09-19T05:41:57.913Z,49.60
2018-09-19T05:44:27.839Z,49.70
2018-09-19T05:46:57.757Z,49.80
2018-09-19T05:49:27.714Z,49.90
2018-09-19T05:51:57.646Z,49.90
2018-09-19T05:54:27.609Z,50.00
2018-09-19T05:56:57.503Z,50.00
2018-09-19T05:59:27.447Z,50.10
2018-09-19T06:01:57.375Z,50.00
2018-09-19T06:04:27.334Z,50.00
2018-09-19T06:06:57.271Z,49.90
2018-09-19T06:09:27.225Z,49.70
2018-09-19T06:11:57.255Z,49.70
2018-09-19T06:14:27.208Z,49.70
2018-09-19T06:16:57.115Z,49.70
2018-09-19T06:19:27.023Z,49.70
2018-09-19T06:21:56.925Z,49.80
2018-09-19T06:24:26.834Z,49.80
2018-09-19T06:26:56.765Z,49.80
2018-09-19T06:29:26.675Z,50.00
2018-09-19T06:31:56.586Z,50.10
2018-09-19T06:34:26.835Z,50.20
2018-09-19T06:36:56.749Z,50.20
2018-09-19T06:39:26.703Z,50.30
2018-09-19T06:41:56.652Z,50.30
2018-09-19T06:44:26.571Z,50.50
2018-09-19T06:46:56.503Z,50.60
2018-09-19T06:49:26.510Z,50.60
2018-09-19T06:51:56.548Z,50.70
2018-09-19T06:54:26.399Z,50.70
2018-09-19T06:56:56.306Z,50.80
2018-09-19T06:59:26.245Z,50.80
2018-09-19T07:01:56.119Z,51.00
2018-09-19T07:04:26.037Z,51.10
2018-09-19T07:06:55.926Z,51.00
2018-09-19T07:09:25.840Z,51.00
2018-09-19T07:11:55.803Z,51.20
2018-09-19T07:14:25.776Z,51.20
2018-09-19T07:16:55.683Z,51.10
2018-09-19T07:19:25.625Z,51.10
2018-09-19T07:21:55.987Z,51.10
2018-09-19T07:24:26.780Z,51.20
2018-09-19T07:26:56.754Z,51.10
2018-09-19T07:29:26.690Z,51.10
2018-09-19T07:31:56.617Z,51.10
2018-09-19T07:34:26.556Z,51.10
2018-09-19T07:36:56.718Z,51.20
2018-09-19T07:39:26.663Z,51.10
2018-09-19T07:41:56.598Z,51.10
2018-09-19T07:44:26.586Z,51.10
2018-09-19T07:46:56.553Z,51.00
2018-09-19T07:49:26.484Z,51.10
2018-09-19T07:51:56.426Z,51.10
2018-09-19T07:54:26.481Z,51.30
2018-09-19T07:56:56.413Z,50.80
2018-09-19T07:59:26.318Z,50.70
2018-09-19T08:01:56.265Z,50.80
2018-09-19T08:04:26.184Z,51.40
2018-09-19T08:06:56.258Z,50.70
2018-09-19T08:09:26.185Z,50.60
2018-09-19T08:11:56.111Z,50.70
2018-09-19T08:14:26.028Z,50.80
2018-09-19T08:16:55.950Z,50.80
2018-09-19T08:19:25.836Z,50.60
2018-09-19T08:21:55.785Z,50.60
2018-09-19T08:24:25.801Z,50.50
2018-09-19T08:26:55.851Z,50.30
2018-09-19T08:29:25.842Z,50.20
2018-09-19T08:31:55.860Z,50.10
2018-09-19T08:34:26.463Z,49.90
2018-09-19T08:36:56.543Z,49.80
2018-09-19T08:39:26.453Z,49.60
2018-09-19T08:41:56.366Z,49.60
2018-09-19T08:44:26.265Z,49.60
2018-09-19T08:46:56.209Z,49.60
2018-09-19T08:49:26.094Z,49.60
2018-09-19T08:51:55.999Z,49.40
2018-09-19T08:54:25.902Z,49.50
2018-09-19T08:56:55.836Z,49.40
2018-09-19T08:59:25.724Z,49.40
2018-09-19T09:01:55.640Z,49.20
2018-09-19T09:04:25.546Z,49.20
2018-09-19T09:06:55.455Z,49.30
2018-09-19T09:09:25.543Z,49.10
2018-09-19T09:11:55.458Z,49.10
2018-09-19T09:14:25.396Z,49.00
2018-09-19T09:16:55.333Z,48.90
2018-09-19T09:19:25.261Z,48.70
2018-09-19T09:21:55.212Z,48.70
2018-09-19T09:24:25.135Z,48.60
2018-09-19T09:26:55.116Z,48.20
2018-09-19T09:29:24.972Z,48.10
2018-09-19T09:31:54.944Z,48.30
2018-09-19T09:34:24.962Z,49.00
2018-09-19T09:36:54.892Z,48.20
2018-09-19T09:39:24.775Z,48.10
2018-09-19T09:41:55.415Z,48.30
2018-09-19T09:44:25.336Z,47.90
2018-09-19T09:46:55.260Z,47.20
2018-09-19T09:49:25.206Z,47.10
2018-09-19T09:51:55.144Z,47.10
2018-09-19T09:54:25.062Z,47.30
2018-09-19T09:56:55.018Z,47.50
2018-09-19T09:59:24.934Z,47.50
2018-09-19T10:01:54.864Z,47.10
2018-09-19T10:04:31.038Z,47.00
2018-09-19T10:07:01.012Z,46.70
2018-09-19T10:09:30.899Z,46.30
2018-09-19T10:12:00.850Z,45.60
2018-09-19T10:14:30.786Z,45.00
2018-09-19T10:17:00.741Z,44.30
2018-09-19T10:19:30.852Z,44.20
2018-09-19T10:22:00.775Z,43.20
2018-09-19T10:24:30.671Z,42.80
2018-09-19T10:27:00.599Z,42.20
2018-09-19T10:29:30.540Z,41.70
2018-09-19T10:32:00.422Z,41.30
2018-09-19T10:34:30.332Z,40.70
2018-09-19T10:37:00.266Z,40.70
2018-09-19T10:39:30.178Z,40.40
2018-09-19T10:42:00.103Z,40.20
2018-09-19T10:44:30.044Z,40.30
2018-09-19T10:46:59.994Z,40.30
2018-09-19T10:49:29.947Z,40.20
2018-09-19T10:51:59.800Z,40.10
2018-09-19T10:54:29.710Z,40.10
2018-09-19T10:56:59.656Z,40.10
2018-09-19T10:59:29.562Z,40.10
2018-09-19T11:01:59.464Z,40.20
2018-09-19T11:04:29.409Z,40.20
2018-09-19T11:07:01.110Z,40.30
2018-09-19T11:09:31.065Z,40.20
2018-09-19T11:12:01.120Z,40.20
2018-09-19T11:14:31.122Z,40.40
2018-09-19T11:17:01.059Z,40.40
2018-09-19T11:19:31.063Z,40.20
2018-09-19T11:22:00.994Z,40.40
2018-09-19T11:24:30.927Z,40.40
2018-09-19T11:27:00.872Z,40.40
2018-09-19T11:29:30.791Z,40.40
2018-09-19T11:32:00.745Z,40.10
2018-09-19T11:34:30.754Z,39.80
2018-09-19T11:37:00.698Z,39.50
2018-09-19T11:39:30.631Z,39.00
2018-09-19T11:42:00.555Z,38.40
2018-09-19T11:44:30.495Z,38.10
2018-09-19T11:47:00.423Z,37.60
2018-09-19T11:49:30.439Z,36.90
2018-09-19T11:52:00.372Z,36.90
2018-09-19T11:54:30.298Z,36.90
2018-09-19T11:57:00.252Z,36.20
2018-09-19T11:59:30.187Z,36.70
2018-09-19T12:02:00.130Z,36.70
2018-09-19T12:04:30.108Z,37.60
2018-09-19T12:07:00.036Z,37.20
2018-09-19T12:09:29.984Z,37.50
2018-09-19T12:11:59.992Z,37.70
2018-09-19T12:14:29.944Z,37.80
2018-09-19T12:16:59.920Z,37.70
2018-09-19T12:19:29.852Z,37.90
2018-09-19T12:21:59.805Z,37.70
2018-09-19T12:24:29.711Z,38.00
2018-09-19T12:26:59.685Z,37.90
2018-09-19T12:29:29.651Z,37.90
2018-09-19T12:31:59.571Z,37.80
2018-09-19T12:34:29.511Z,37.90
2018-09-19T12:36:59.488Z,38.10
2018-09-19T12:39:29.502Z,38.30
2018-09-19T12:41:59.407Z,38.40
2018-09-19T12:44:29.338Z,38.60
2018-09-19T12:46:59.288Z,38.60
2018-09-19T12:49:29.214Z,38.40
2018-09-19T12:51:59.237Z,38.60
2018-09-19T12:54:29.160Z,38.10
2018-09-19T12:56:59.100Z,38.40
2018-09-19T12:59:29.031Z,38.60
2018-09-19T13:01:58.946Z,38.50
2018-09-19T13:04:29.519Z,38.70
2018-09-19T13:06:59.454Z,38.50
2018-09-19T13:09:29.410Z,38.30
2018-09-19T13:12:00.430Z,39.50
2018-09-19T13:14:31.746Z,38.90
2018-09-19T13:17:03.294Z,39.00
2018-09-19T13:19:33.671Z,38.90
2018-09-19T13:22:03.726Z,38.80
2018-09-19T13:24:33.971Z,38.80
2018-09-19T13:27:04.105Z,38.80
2018-09-19T13:29:34.242Z,39.00
2018-09-19T13:32:04.835Z,38.30
2018-09-19T13:34:35.193Z,38.50
2018-09-19T13:37:05.249Z,38.20
2018-09-19T13:39:36.126Z,38.40
2018-09-19T13:42:06.358Z,38.30
2018-09-19T13:44:37.396Z,38.00
2018-09-19T13:47:10.748Z,38.40
2018-09-19T13:49:48.798Z,38.50
2018-09-19T13:52:18.906Z,38.40
2018-09-19T13:54:49.144Z,38.40
2018-09-19T13:57:19.239Z,38.50
2018-09-19T13:59:58.191Z,38.60
2018-09-19T14:02:28.330Z,38.50
2018-09-19T14:04:58.481Z,38.40
2018-09-19T14:07:28.573Z,38.60
2018-09-19T14:09:58.940Z,38.60
2018-09-19T14:12:29.105Z,38.00
2018-09-19T14:15:00.191Z,37.90
2018-09-19T14:17:31.114Z,37.50
2018-09-19T14:20:01.139Z,37.70
2018-09-19T14:22:31.525Z,37.50
2018-09-19T14:25:01.809Z,37.40
2018-09-19T14:27:32.275Z,37.20
2018-09-19T14:30:02.808Z,37.60
2018-09-19T14:32:33.039Z,37.60
2018-09-19T14:35:04.352Z,37.10
2018-09-19T14:37:34.359Z,37.40
2018-09-19T14:40:04.600Z,37.10
2018-09-19T14:42:34.750Z,37.30
2018-09-19T14:45:05.514Z,37.20
2018-09-19T14:47:35.721Z,37.50
2018-09-19T14:50:06.188Z,37.40
2018-09-19T14:52:36.634Z,37.30
2018-09-19T14:55:06.955Z,37.40
2018-09-19T14:57:43.860Z,37.70
2018-09-19T15:00:14.258Z,37.40
2018-09-19T15:02:44.262Z,37.10
2018-09-19T15:05:14.616Z,37.10
2018-09-19T15:07:44.907Z,37.50
2018-09-19T15:10:16.616Z,37.40
2018-09-19T15:12:47.007Z,37.60
2018-09-19T15:15:17.680Z,37.50
2018-09-19T15:17:48.491Z,37.50
2018-09-19T15:20:18.756Z,37.70
2018-09-19T15:22:52.035Z,37.60
2018-09-19T15:25:22.251Z,37.40
2018-09-19T15:27:53.067Z,37.80
2018-09-19T15:30:23.620Z,37.70
2018-09-19T15:32:54.568Z,37.50
2018-09-19T15:35:24.631Z,37.60
2018-09-19T15:37:55.491Z,37.70
2018-09-19T15:40:25.735Z,38.40
2018-09-19T15:42:56.692Z,37.90
2018-09-19T15:45:26.794Z,37.90
2018-09-19T15:47:58.478Z,38.50
2018-09-19T15:50:29.175Z,37.90
2018-09-19T15:53:00.227Z,37.90
2018-09-19T15:55:30.283Z,38.20
2018-09-19T15:58:00.311Z,38.00
2018-09-19T16:00:31.427Z,37.90
2018-09-19T16:03:01.996Z,37.60
2018-09-19T16:05:32.029Z,37.50
2018-09-19T16:08:03.826Z,37.70
2018-09-19T16:10:34.027Z,37.60
2018-09-19T16:13:03.940Z,37.80
2018-09-19T16:15:33.838Z,37.70
2018-09-19T16:18:03.774Z,37.60
2018-09-19T16:20:33.674Z,37.60
2018-09-19T16:23:03.598Z,37.60
2018-09-19T16:25:33.516Z,37.30
2018-09-19T16:28:03.424Z,37.70
2018-09-19T16:30:33.356Z,37.80
2018-09-19T16:33:03.454Z,37.60
2018-09-19T16:35:33.359Z,37.90
2018-09-19T16:38:03.325Z,37.90
2018-09-19T16:40:33.308Z,37.60
2018-09-19T16:43:03.487Z,37.50
2018-09-19T16:45:33.525Z,37.40
2018-09-19T16:48:03.347Z,37.60
2018-09-19T16:50:33.243Z,37.90
2018-09-19T16:53:03.279Z,37.70
2018-09-19T16:55:33.243Z,37.80
2018-09-19T16:58:03.231Z,37.70
2018-09-19T17:00:33.136Z,37.80
2018-09-19T17:03:03.036Z,37.60
2018-09-19T17:05:32.993Z,37.70
2018-09-19T17:08:02.888Z,37.70
2018-09-19T17:10:32.860Z,38.00
2018-09-19T17:13:02.764Z,37.90
2018-09-19T17:15:32.754Z,37.80
2018-09-19T17:18:02.631Z,37.90
2018-09-19T17:20:32.563Z,38.40
2018-09-19T17:23:02.484Z,39.00
2018-09-19T17:25:32.408Z,38.20
2018-09-19T17:28:02.339Z,38.10
2018-09-19T17:30:32.272Z,38.10
2018-09-19T17:33:02.204Z,38.90
2018-09-19T17:35:32.132Z,38.10
2018-09-19T17:38:02.061Z,38.20
2018-09-19T17:40:32.012Z,38.00
2018-09-19T17:43:01.935Z,38.20
2018-09-19T17:45:31.873Z,38.90
2018-09-19T17:48:01.890Z,38.80
2018-09-19T17:50:31.814Z,39.00
2018-09-19T17:53:01.769Z,39.00
2018-09-19T17:55:31.659Z,38.70
2018-09-19T17:58:01.747Z,38.70
2018-09-19T18:00:31.728Z,38.50
2018-09-19T18:03:01.636Z,38.70
2018-09-19T18:05:31.549Z,38.60
2018-09-19T18:08:01.685Z,38.90
2018-09-19T18:10:32.138Z,38.70
2018-09-19T18:13:02.468Z,38.80
2018-09-19T18:15:32.568Z,38.70
2018-09-19T18:18:02.479Z,38.70
2018-09-19T18:20:32.728Z,38.80
2018-09-19T18:23:03.175Z,38.70
2018-09-19T18:25:33.556Z,38.70
2018-09-19T18:28:04.037Z,38.80
2018-09-19T18:30:34.588Z,38.80
2018-09-19T18:33:04.750Z,38.70
2018-09-19T18:35:34.736Z,38.70
2018-09-19T18:38:04.638Z,38.80
2018-09-19T18:40:34.552Z,39.00
2018-09-19T18:43:04.461Z,38.80
2018-09-19T18:45:34.371Z,38.90
2018-09-19T18:48:04.390Z,39.00
2018-09-19T18:50:34.349Z,39.00
2018-09-19T18:53:04.255Z,39.10
2018-09-19T18:55:34.904Z,39.90
2018-09-19T18:58:06.084Z,39.20
2018-09-19T19:00:36.196Z,39.40
2018-09-19T19:03:06.323Z,39.30
2018-09-19T19:05:36.234Z,39.50
2018-09-19T19:08:06.199Z,39.60
2018-09-19T19:10:36.208Z,39.70
2018-09-19T19:13:06.105Z,39.60
2018-09-19T19:15:36.016Z,40.00
2018-09-19T19:18:05.933Z,40.10
2018-09-19T19:20:35.857Z,40.20
2018-09-19T19:23:05.755Z,40.50
2018-09-19T19:25:35.651Z,40.50
2018-09-19T19:28:05.714Z,40.60
2018-09-19T19:30:35.802Z,40.70
2018-09-19T19:33:05.563Z,40.80
2018-09-19T19:35:35.492Z,40.50
2018-09-19T19:38:05.854Z,40.80
2018-09-19T19:40:35.726Z,40.90
2018-09-19T19:43:05.812Z,40.70
2018-09-19T19:45:35.752Z,41.10
2018-09-19T19:48:05.863Z,41.20
2018-09-19T19:50:35.955Z,41.30
2018-09-19T19:53:05.912Z,41.20
2018-09-19T19:55:36.012Z,41.30
2018-09-19T19:58:07.238Z,41.20
2018-09-19T20:00:37.185Z,41.40
2018-09-19T20:03:07.136Z,41.50
2018-09-19T20:05:37.688Z,41.50
2018-09-19T20:08:07.587Z,41.70
2018-09-19T20:10:37.647Z,41.50
2018-09-19T20:13:07.946Z,41.70
2018-09-19T20:15:37.854Z,41.90
2018-09-19T20:18:07.755Z,41.90
2018-09-19T20:20:37.882Z,42.00
2018-09-19T20:23:09.048Z,42.00
2018-09-19T20:25:39.539Z,42.10
2018-09-19T20:28:09.458Z,42.30
2018-09-19T20:30:39.375Z,42.20
2018-09-19T20:33:09.275Z,42.30
2018-09-19T20:35:39.203Z,42.30
2018-09-19T20:38:09.118Z,42.40
2018-09-19T20:40:39.096Z,42.40
2018-09-19T20:43:08.984Z,42.40
2018-09-19T20:45:38.904Z,42.50
2018-09-19T20:48:08.825Z,42.60
2018-09-19T20:50:38.731Z,42.60
2018-09-19T20:53:08.750Z,42.70
2018-09-19T20:55:38.739Z,42.70
2018-09-19T20:58:08.654Z,42.80
2018-09-19T21:00:38.643Z,42.70
2018-09-19T21:03:08.582Z,42.80
2018-09-19T21:05:38.766Z,42.80
2018-09-19T21:08:08.678Z,43.10
2018-09-19T21:10:38.587Z,42.80
2018-09-19T21:13:08.490Z,42.90
2018-09-19T21:15:38.381Z,43.00
2018-09-19T21:18:08.260Z,43.00
2018-09-19T21:20:38.203Z,43.00
2018-09-19T21:23:08.115Z,43.10
2018-09-19T21:25:37.990Z,43.30
2018-09-19T21:28:07.983Z,43.20
2018-09-19T21:30:37.855Z,43.30
2018-09-19T21:33:07.867Z,43.40
2018-09-19T21:35:37.810Z,43.50
2018-09-19T21:38:07.696Z,43.50
2018-09-19T21:40:37.678Z,43.50
2018-09-19T21:43:07.511Z,43.50
2018-09-19T21:45:37.380Z,43.60
2018-09-19T21:48:07.260Z,43.50
2018-09-19T21:50:37.148Z,43.40
2018-09-19T21:53:07.035Z,43.40
2018-09-19T21:55:36.925Z,43.60
2018-09-19T21:58:06.891Z,43.40
2018-09-19T22:00:36.810Z,43.50
2018-09-19T22:03:06.609Z,43.70
2018-09-19T22:05:36.493Z,43.70
2018-09-19T22:08:06.386Z,43.70
2018-09-19T22:10:36.262Z,43.70
2018-09-19T22:13:06.141Z,43.80
2018-09-19T22:15:36.044Z,43.80
2018-09-19T22:18:05.942Z,43.90
2018-09-19T22:20:35.810Z,44.00
2018-09-19T22:23:05.680Z,44.00
2018-09-19T22:25:35.560Z,44.10
2018-09-19T22:28:05.427Z,44.10
2018-09-19T22:30:35.306Z,44.10
2018-09-19T22:33:05.199Z,44.10
2018-09-19T22:35:35.072Z,44.20
2018-09-19T22:38:04.960Z,44.30
2018-09-19T22:40:34.830Z,44.30
2018-09-19T22:43:04.706Z,44.30
2018-09-19T22:45:34.583Z,44.30
2018-09-19T22:48:04.470Z,44.30
2018-09-19T22:50:34.367Z,44.30
2018-09-19T22:53:04.268Z,44.30
2018-09-19T22:55:34.362Z,44.40
2018-09-19T22:58:04.239Z,44.30
2018-09-19T23:00:34.128Z,44.30
2018-09-19T23:03:04.012Z,44.40
2018-09-19T23:05:33.876Z,44.50
2018-09-19T23:08:03.751Z,44.70
2018-09-19T23:10:33.643Z,44.70
2018-09-19T23:13:03.534Z,44.80
2018-09-19T23:15:33.434Z,44.80
2018-09-19T23:18:03.362Z,44.60
2018-09-19T23:20:33.258Z,44.60
2018-09-19T23:23:03.173Z,44.50
2018-09-19T23:25:33.072Z,44.50
2018-09-19T23:28:02.990Z,44.50
2018-09-19T23:30:32.891Z,44.50
2018-09-19T23:33:02.794Z,44.50
2018-09-19T23:35:32.691Z,44.50
2018-09-19T23:38:02.836Z,44.70
2018-09-19T23:40:32.746Z,44.60
2018-09-19T23:43:02.659Z,44.80
2018-09-19T23:45:32.579Z,45.00
2018-09-19T23:48:02.591Z,45.00
2018-09-19T23:50:32.492Z,45.00
2018-09-19T23:53:09.130Z,45.00
2018-09-19T23:55:39.034Z,45.00
2018-09-19T23:58:09.148Z,45.00
